To NAV CANADA Home Page Login to a new session Search on AWWS site Feedback and Comments Disclaimer Vers la page française équivalente Tips FAQ What's new on the site To the Forecasts and Observations / NOTAM section To "File a Flight Plan" website Publications and other links Update of the User's profile FIC Telephone Numbers My Weather Data Folder Route Weather Data Regional Weather Data Local Weather Data To the Forecasts and Observations / NOTAM section
Request Generated 03/27/2015 at 19:07:13 UTC . Weather information available at that time is displayed.

METAR/TAF

KUUJJUAQ/QC    

METAR CYVP 271900Z 26013KT 15SM FEW025 FEW050 FEW240 M18/M25 A2980
RMK SC1SC1CI1 CI TR SLP097=
METAR CYVP 271800Z 27014KT 15SM FEW020 FEW060 FEW240 M18/M25 A2980
RMK SC1SC1CI2 SC TR SC TR SLP096=
METAR CYVP 271700Z 27009G16KT 15SM FEW018 FEW055 SCT240 M18/M26 A2981
RMK SC1SC2CI1 SC TR SLP100=

TAF CYVP 271741Z 2718/2806 27010KT P6SM FEW020
BECMG 2722/2724 23008KT
FM280400 23008KT P6SM SCT015 OVC120 TEMPO 2804/2806 2SM -SN
BKN015 OVC120
RMK NXT FCST BY 280000Z=
Your time UTC time
Weather data provided by Environment Canada and NAV CANADA